sensor_id;sensor_type;location;lat;lon;timestamp;temperature;humidity
26517;DHT22;14190;51.342;6.338;2022-10-22T00:00:40;15.40;99.90
26517;DHT22;14190;51.342;6.338;2022-10-22T00:03:09;15.30;99.90
26517;DHT22;14190;51.342;6.338;2022-10-22T00:05:38;15.30;99.90
26517;DHT22;14190;51.342;6.338;2022-10-22T00:08:06;15.30;99.90
26517;DHT22;14190;51.342;6.338;2022-10-22T00:10:36;15.30;99.90
26517;DHT22;14190;51.342;6.338;2022-10-22T00:13:05;15.30;99.90
26517;DHT22;14190;51.342;6.338;2022-10-22T00:15:33;15.30;99.90
26517;DHT22;14190;51.342;6.338;2022-10-22T00:18:02;15.30;99.90
26517;DHT22;14190;51.342;6.338;2022-10-22T00:20:31;15.30;99.90
26517;DHT22;14190;51.342;6.338;2022-10-22T00:23:00;15.30;99.90
26517;DHT22;14190;51.342;6.338;2022-10-22T00:25:28;15.30;99.90
26517;DHT22;14190;51.342;6.338;2022-10-22T00:27:59;15.30;99.90
26517;DHT22;14190;51.342;6.338;2022-10-22T00:30:29;15.30;99.90
26517;DHT22;14190;51.342;6.338;2022-10-22T00:32:57;15.30;99.90
26517;DHT22;14190;51.342;6.338;2022-10-22T00:35:26;15.30;99.90
26517;DHT22;14190;51.342;6.338;2022-10-22T00:37:55;15.30;99.90
26517;DHT22;14190;51.342;6.338;2022-10-22T00:40:23;15.30;99.90
26517;DHT22;14190;51.342;6.338;2022-10-22T00:42:52;15.30;99.90
26517;DHT22;14190;51.342;6.338;2022-10-22T00:45:23;15.30;99.90
26517;DHT22;14190;51.342;6.338;2022-10-22T00:50:39;15.30;99.90
26517;DHT22;14190;51.342;6.338;2022-10-22T00:53:12;15.30;99.90
26517;DHT22;14190;51.342;6.338;2022-10-22T00:55:40;15.30;99.90
26517;DHT22;14190;51.342;6.338;2022-10-22T00:58:09;15.30;99.90
26517;DHT22;14190;51.342;6.338;2022-10-22T01:00:40;15.30;99.90
26517;DHT22;14190;51.342;6.338;2022-10-22T01:03:09;15.30;99.90
26517;DHT22;14190;51.342;6.338;2022-10-22T01:05:48;15.20;99.90
26517;DHT22;14190;51.342;6.338;2022-10-22T01:08:21;15.20;99.90
26517;DHT22;14190;51.342;6.338;2022-10-22T01:10:48;15.20;99.90
26517;DHT22;14190;51.342;6.338;2022-10-22T01:16:12;15.20;99.90
26517;DHT22;14190;51.342;6.338;2022-10-22T01:21:31;15.30;99.90
26517;DHT22;14190;51.342;6.338;2022-10-22T01:27:02;15.30;99.90
26517;DHT22;14190;51.342;6.338;2022-10-22T01:29:35;15.30;99.90
26517;DHT22;14190;51.342;6.338;2022-10-22T01:32:01;15.20;99.90
26517;DHT22;14190;51.342;6.338;2022-10-22T01:34:30;15.20;99.90
26517;DHT22;14190;51.342;6.338;2022-10-22T01:36:59;15.20;99.90
26517;DHT22;14190;51.342;6.338;2022-10-22T01:39:29;15.20;99.90
26517;DHT22;14190;51.342;6.338;2022-10-22T01:41:58;15.10;99.90
26517;DHT22;14190;51.342;6.338;2022-10-22T01:44:28;15.10;99.90
26517;DHT22;14190;51.342;6.338;2022-10-22T01:47:07;15.10;99.90
26517;DHT22;14190;51.342;6.338;2022-10-22T01:52:23;15.10;99.90
26517;DHT22;14190;51.342;6.338;2022-10-22T01:55:08;15.10;99.90
26517;DHT22;14190;51.342;6.338;2022-10-22T01:57:51;15.10;99.90
26517;DHT22;14190;51.342;6.338;2022-10-22T02:00:13;15.00;99.90
26517;DHT22;14190;51.342;6.338;2022-10-22T02:05:24;15.00;99.90
26517;DHT22;14190;51.342;6.338;2022-10-22T02:07:54;15.00;99.90
26517;DHT22;14190;51.342;6.338;2022-10-22T02:10:23;15.10;99.90
26517;DHT22;14190;51.342;6.338;2022-10-22T02:12:52;15.10;99.90
26517;DHT22;14190;51.342;6.338;2022-10-22T02:15:23;15.10;99.90
26517;DHT22;14190;51.342;6.338;2022-10-22T02:17:53;15.10;99.90
26517;DHT22;14190;51.342;6.338;2022-10-22T02:20:28;15.10;99.90
26517;DHT22;14190;51.342;6.338;2022-10-22T02:22:54;15.10;99.90
26517;DHT22;14190;51.342;6.338;2022-10-22T02:25:24;15.00;99.90
26517;DHT22;14190;51.342;6.338;2022-10-22T02:28:14;15.10;99.90
26517;DHT22;14190;51.342;6.338;2022-10-22T02:30:43;15.00;99.90
26517;DHT22;14190;51.342;6.338;2022-10-22T02:33:18;15.10;99.90
26517;DHT22;14190;51.342;6.338;2022-10-22T02:35:43;15.00;99.90
26517;DHT22;14190;51.342;6.338;2022-10-22T02:38:12;15.00;99.90
26517;DHT22;14190;51.342;6.338;2022-10-22T02:40:41;15.00;99.90
26517;DHT22;14190;51.342;6.338;2022-10-22T02:43:10;15.00;99.90
26517;DHT22;14190;51.342;6.338;2022-10-22T02:45:38;15.00;99.90
26517;DHT22;14190;51.342;6.338;2022-10-22T02:48:07;15.00;99.90
26517;DHT22;14190;51.342;6.338;2022-10-22T02:50:36;15.00;99.90
26517;DHT22;14190;51.342;6.338;2022-10-22T02:53:05;15.00;99.90
26517;DHT22;14190;51.342;6.338;2022-10-22T02:55:33;15.00;99.90
26517;DHT22;14190;51.342;6.338;2022-10-22T02:58:02;14.90;99.90
26517;DHT22;14190;51.342;6.338;2022-10-22T03:00:31;15.00;99.90
26517;DHT22;14190;51.342;6.338;2022-10-22T03:02:59;14.90;99.90
26517;DHT22;14190;51.342;6.338;2022-10-22T03:05:28;14.90;99.90
26517;DHT22;14190;51.342;6.338;2022-10-22T03:07:57;14.90;99.90
26517;DHT22;14190;51.342;6.338;2022-10-22T03:10:26;14.90;99.90
26517;DHT22;14190;51.342;6.338;2022-10-22T03:12:54;14.90;99.90
26517;DHT22;14190;51.342;6.338;2022-10-22T03:15:23;14.90;99.90
26517;DHT22;14190;51.342;6.338;2022-10-22T03:17:52;14.90;99.90
26517;DHT22;14190;51.342;6.338;2022-10-22T03:20:20;14.90;99.90
26517;DHT22;14190;51.342;6.338;2022-10-22T03:22:49;14.90;99.90
26517;DHT22;14190;51.342;6.338;2022-10-22T03:25:21;14.90;99.90
26517;DHT22;14190;51.342;6.338;2022-10-22T03:27:51;14.90;99.90
26517;DHT22;14190;51.342;6.338;2022-10-22T03:30:20;14.90;99.90
26517;DHT22;14190;51.342;6.338;2022-10-22T03:32:49;14.90;99.90
26517;DHT22;14190;51.342;6.338;2022-10-22T03:35:19;14.90;99.90
26517;DHT22;14190;51.342;6.338;2022-10-22T03:37:48;14.90;99.90
26517;DHT22;14190;51.342;6.338;2022-10-22T03:40:17;14.90;99.90
26517;DHT22;14190;51.342;6.338;2022-10-22T03:42:47;14.90;99.90
26517;DHT22;14190;51.342;6.338;2022-10-22T03:45:16;14.80;99.90
26517;DHT22;14190;51.342;6.338;2022-10-22T03:47:45;14.80;99.90
26517;DHT22;14190;51.342;6.338;2022-10-22T03:50:13;14.90;99.90
26517;DHT22;14190;51.342;6.338;2022-10-22T03:52:43;14.90;99.90
26517;DHT22;14190;51.342;6.338;2022-10-22T03:55:12;14.80;99.90
26517;DHT22;14190;51.342;6.338;2022-10-22T03:57:41;14.80;99.90
26517;DHT22;14190;51.342;6.338;2022-10-22T04:00:10;14.80;99.90
26517;DHT22;14190;51.342;6.338;2022-10-22T04:02:38;14.80;99.90
26517;DHT22;14190;51.342;6.338;2022-10-22T04:05:07;14.90;99.90
26517;DHT22;14190;51.342;6.338;2022-10-22T04:07:36;14.80;99.90
26517;DHT22;14190;51.342;6.338;2022-10-22T04:10:05;14.80;99.90
26517;DHT22;14190;51.342;6.338;2022-10-22T04:12:34;14.80;99.90
26517;DHT22;14190;51.342;6.338;2022-10-22T04:15:03;14.80;99.90
26517;DHT22;14190;51.342;6.338;2022-10-22T04:17:32;14.80;99.90
26517;DHT22;14190;51.342;6.338;2022-10-22T04:20:02;14.80;99.90
26517;DHT22;14190;51.342;6.338;2022-10-22T04:22:34;14.70;99.90
26517;DHT22;14190;51.342;6.338;2022-10-22T04:25:03;14.70;99.90
26517;DHT22;14190;51.342;6.338;2022-10-22T04:27:32;14.70;99.90
26517;DHT22;14190;51.342;6.338;2022-10-22T04:30:02;14.70;99.90
26517;DHT22;14190;51.342;6.338;2022-10-22T04:32:31;14.70;99.90
26517;DHT22;14190;51.342;6.338;2022-10-22T04:35:00;14.60;99.90
26517;DHT22;14190;51.342;6.338;2022-10-22T04:37:28;14.60;99.90
26517;DHT22;14190;51.342;6.338;2022-10-22T04:39:57;14.60;99.90
26517;DHT22;14190;51.342;6.338;2022-10-22T04:42:26;14.60;99.90
26517;DHT22;14190;51.342;6.338;2022-10-22T04:44:54;14.60;99.90
26517;DHT22;14190;51.342;6.338;2022-10-22T04:47:23;14.50;99.90
26517;DHT22;14190;51.342;6.338;2022-10-22T04:49:52;14.50;99.90
26517;DHT22;14190;51.342;6.338;2022-10-22T04:52:20;14.50;99.90
26517;DHT22;14190;51.342;6.338;2022-10-22T04:54:49;14.50;99.90
26517;DHT22;14190;51.342;6.338;2022-10-22T04:57:18;14.50;99.90
26517;DHT22;14190;51.342;6.338;2022-10-22T04:59:46;14.50;99.90
26517;DHT22;14190;51.342;6.338;2022-10-22T05:02:15;14.50;99.90
26517;DHT22;14190;51.342;6.338;2022-10-22T05:04:44;14.50;99.90
26517;DHT22;14190;51.342;6.338;2022-10-22T05:07:12;14.50;99.90
26517;DHT22;14190;51.342;6.338;2022-10-22T05:09:41;14.50;99.90
26517;DHT22;14190;51.342;6.338;2022-10-22T05:12:10;14.60;99.90
26517;DHT22;14190;51.342;6.338;2022-10-22T05:14:39;14.60;99.90
26517;DHT22;14190;51.342;6.338;2022-10-22T05:17:07;14.60;99.90
26517;DHT22;14190;51.342;6.338;2022-10-22T05:19:36;14.70;99.90
26517;DHT22;14190;51.342;6.338;2022-10-22T05:22:05;14.70;99.90
26517;DHT22;14190;51.342;6.338;2022-10-22T05:24:33;14.70;99.90
26517;DHT22;14190;51.342;6.338;2022-10-22T05:27:03;14.80;99.90
26517;DHT22;14190;51.342;6.338;2022-10-22T05:29:32;14.80;99.90
26517;DHT22;14190;51.342;6.338;2022-10-22T05:32:01;14.80;99.90
26517;DHT22;14190;51.342;6.338;2022-10-22T05:34:30;14.90;99.90
26517;DHT22;14190;51.342;6.338;2022-10-22T05:37:00;14.80;99.90
26517;DHT22;14190;51.342;6.338;2022-10-22T05:39:29;14.90;99.90
26517;DHT22;14190;51.342;6.338;2022-10-22T05:41:57;14.80;99.90
26517;DHT22;14190;51.342;6.338;2022-10-22T05:44:26;14.90;99.90
26517;DHT22;14190;51.342;6.338;2022-10-22T05:46:55;14.90;99.90
26517;DHT22;14190;51.342;6.338;2022-10-22T05:49:23;14.90;99.90
26517;DHT22;14190;51.342;6.338;2022-10-22T05:51:52;14.90;99.90
26517;DHT22;14190;51.342;6.338;2022-10-22T05:54:21;14.90;99.90
26517;DHT22;14190;51.342;6.338;2022-10-22T05:56:49;14.90;99.90
26517;DHT22;14190;51.342;6.338;2022-10-22T05:59:18;14.90;99.90
26517;DHT22;14190;51.342;6.338;2022-10-22T06:01:47;14.90;99.90
26517;DHT22;14190;51.342;6.338;2022-10-22T06:04:15;14.90;99.90
26517;DHT22;14190;51.342;6.338;2022-10-22T06:06:45;14.90;99.90
26517;DHT22;14190;51.342;6.338;2022-10-22T06:09:16;14.90;99.90
26517;DHT22;14190;51.342;6.338;2022-10-22T06:11:45;14.90;99.90
26517;DHT22;14190;51.342;6.338;2022-10-22T06:14:14;14.90;99.90
26517;DHT22;14190;51.342;6.338;2022-10-22T06:16:43;14.90;99.90
26517;DHT22;14190;51.342;6.338;2022-10-22T06:19:12;14.90;99.90
26517;DHT22;14190;51.342;6.338;2022-10-22T06:21:41;14.90;99.90
26517;DHT22;14190;51.342;6.338;2022-10-22T06:24:10;15.00;99.90
26517;DHT22;14190;51.342;6.338;2022-10-22T06:26:38;15.00;99.90
26517;DHT22;14190;51.342;6.338;2022-10-22T06:29:07;15.00;99.90
26517;DHT22;14190;51.342;6.338;2022-10-22T06:31:36;15.10;99.90
26517;DHT22;14190;51.342;6.338;2022-10-22T06:34:06;15.10;99.90
26517;DHT22;14190;51.342;6.338;2022-10-22T06:36:36;15.20;99.90
26517;DHT22;14190;51.342;6.338;2022-10-22T06:39:05;15.20;99.90
26517;DHT22;14190;51.342;6.338;2022-10-22T06:41:34;15.20;99.90
26517;DHT22;14190;51.342;6.338;2022-10-22T06:44:02;15.30;99.90
26517;DHT22;14190;51.342;6.338;2022-10-22T06:46:31;15.40;99.90
26517;DHT22;14190;51.342;6.338;2022-10-22T06:49:00;15.40;99.90
26517;DHT22;14190;51.342;6.338;2022-10-22T06:51:30;15.50;99.90
26517;DHT22;14190;51.342;6.338;2022-10-22T06:53:59;15.50;99.90
26517;DHT22;14190;51.342;6.338;2022-10-22T06:56:27;15.60;99.90
26517;DHT22;14190;51.342;6.338;2022-10-22T06:58:56;15.60;99.90
26517;DHT22;14190;51.342;6.338;2022-10-22T07:01:27;15.60;99.90
26517;DHT22;14190;51.342;6.338;2022-10-22T07:03:56;15.70;99.90
26517;DHT22;14190;51.342;6.338;2022-10-22T07:06:26;15.70;99.90
26517;DHT22;14190;51.342;6.338;2022-10-22T07:08:55;15.70;99.90
26517;DHT22;14190;51.342;6.338;2022-10-22T07:11:25;15.70;99.90
26517;DHT22;14190;51.342;6.338;2022-10-22T07:13:55;15.80;99.90
26517;DHT22;14190;51.342;6.338;2022-10-22T07:16:25;15.80;99.90
26517;DHT22;14190;51.342;6.338;2022-10-22T07:18:53;15.80;99.90
26517;DHT22;14190;51.342;6.338;2022-10-22T07:21:22;15.80;99.90
26517;DHT22;14190;51.342;6.338;2022-10-22T07:23:52;15.80;99.90
26517;DHT22;14190;51.342;6.338;2022-10-22T07:26:21;15.80;99.90
26517;DHT22;14190;51.342;6.338;2022-10-22T07:28:52;15.80;99.90
26517;DHT22;14190;51.342;6.338;2022-10-22T07:31:20;15.90;99.90
26517;DHT22;14190;51.342;6.338;2022-10-22T07:33:49;15.90;99.90
26517;DHT22;14190;51.342;6.338;2022-10-22T07:36:18;15.90;99.90
26517;DHT22;14190;51.342;6.338;2022-10-22T07:38:48;15.90;99.90
26517;DHT22;14190;51.342;6.338;2022-10-22T07:41:16;16.00;99.90
26517;DHT22;14190;51.342;6.338;2022-10-22T07:43:45;16.10;99.90
26517;DHT22;14190;51.342;6.338;2022-10-22T07:46:14;16.10;99.90
26517;DHT22;14190;51.342;6.338;2022-10-22T07:48:43;16.20;99.90
26517;DHT22;14190;51.342;6.338;2022-10-22T07:51:11;16.20;99.90
26517;DHT22;14190;51.342;6.338;2022-10-22T07:53:40;16.30;99.90
26517;DHT22;14190;51.342;6.338;2022-10-22T07:56:09;16.30;99.90
26517;DHT22;14190;51.342;6.338;2022-10-22T07:58:38;16.30;99.90
26517;DHT22;14190;51.342;6.338;2022-10-22T08:01:09;16.40;99.90
26517;DHT22;14190;51.342;6.338;2022-10-22T08:03:37;16.50;99.90
26517;DHT22;14190;51.342;6.338;2022-10-22T08:06:06;16.60;99.90
26517;DHT22;14190;51.342;6.338;2022-10-22T08:08:35;16.80;99.90
26517;DHT22;14190;51.342;6.338;2022-10-22T08:11:04;16.90;99.90
26517;DHT22;14190;51.342;6.338;2022-10-22T08:13:32;17.10;99.90
26517;DHT22;14190;51.342;6.338;2022-10-22T08:16:01;17.30;99.90
26517;DHT22;14190;51.342;6.338;2022-10-22T08:18:30;17.40;99.90
26517;DHT22;14190;51.342;6.338;2022-10-22T08:20:59;17.40;99.90
26517;DHT22;14190;51.342;6.338;2022-10-22T08:23:27;17.40;99.90
26517;DHT22;14190;51.342;6.338;2022-10-22T08:25:56;17.50;99.90
26517;DHT22;14190;51.342;6.338;2022-10-22T08:28:26;17.80;99.90
26517;DHT22;14190;51.342;6.338;2022-10-22T08:30:56;18.00;99.90
26517;DHT22;14190;51.342;6.338;2022-10-22T08:33:25;18.30;99.90
26517;DHT22;14190;51.342;6.338;2022-10-22T08:35:53;18.50;99.90
26517;DHT22;14190;51.342;6.338;2022-10-22T08:38:23;18.40;99.90
26517;DHT22;14190;51.342;6.338;2022-10-22T08:40:52;18.30;99.90
26517;DHT22;14190;51.342;6.338;2022-10-22T08:46:23;18.10;99.90
26517;DHT22;14190;51.342;6.338;2022-10-22T08:48:56;18.00;99.90
26517;DHT22;14190;51.342;6.338;2022-10-22T08:51:28;17.90;99.90
26517;DHT22;14190;51.342;6.338;2022-10-22T08:54:10;17.90;99.90
26517;DHT22;14190;51.342;6.338;2022-10-22T08:56:26;17.90;99.90
26517;DHT22;14190;51.342;6.338;2022-10-22T08:58:58;17.90;99.90
26517;DHT22;14190;51.342;6.338;2022-10-22T09:01:35;17.90;99.90
26517;DHT22;14190;51.342;6.338;2022-10-22T09:04:04;17.90;99.90
26517;DHT22;14190;51.342;6.338;2022-10-22T09:06:32;17.90;99.90
26517;DHT22;14190;51.342;6.338;2022-10-22T09:09:08;17.90;99.90
26517;DHT22;14190;51.342;6.338;2022-10-22T09:11:34;17.90;99.90
26517;DHT22;14190;51.342;6.338;2022-10-22T09:14:03;17.90;99.90
26517;DHT22;14190;51.342;6.338;2022-10-22T09:19:11;17.90;99.90
26517;DHT22;14190;51.342;6.338;2022-10-22T09:21:51;18.00;99.90
26517;DHT22;14190;51.342;6.338;2022-10-22T09:24:36;18.10;99.90
26517;DHT22;14190;51.342;6.338;2022-10-22T09:27:10;18.10;99.90
26517;DHT22;14190;51.342;6.338;2022-10-22T09:29:39;18.10;99.90
26517;DHT22;14190;51.342;6.338;2022-10-22T09:32:08;18.10;99.90
26517;DHT22;14190;51.342;6.338;2022-10-22T09:34:37;18.20;99.90
26517;DHT22;14190;51.342;6.338;2022-10-22T09:37:07;18.20;99.90
26517;DHT22;14190;51.342;6.338;2022-10-22T09:39:40;18.30;99.90
26517;DHT22;14190;51.342;6.338;2022-10-22T09:42:09;18.40;99.90
26517;DHT22;14190;51.342;6.338;2022-10-22T09:44:39;18.40;99.90
26517;DHT22;14190;51.342;6.338;2022-10-22T09:50:41;18.40;99.90
26517;DHT22;14190;51.342;6.338;2022-10-22T09:52:26;18.40;99.90
26517;DHT22;14190;51.342;6.338;2022-10-22T09:54:55;18.40;99.90
26517;DHT22;14190;51.342;6.338;2022-10-22T09:57:24;18.40;99.90
26517;DHT22;14190;51.342;6.338;2022-10-22T09:59:54;18.40;99.90
26517;DHT22;14190;51.342;6.338;2022-10-22T10:02:27;18.50;99.90
26517;DHT22;14190;51.342;6.338;2022-10-22T10:04:55;18.60;99.90
26517;DHT22;14190;51.342;6.338;2022-10-22T10:07:25;18.70;99.90
26517;DHT22;14190;51.342;6.338;2022-10-22T10:09:55;18.70;99.90
26517;DHT22;14190;51.342;6.338;2022-10-22T10:17:42;18.70;99.90
26517;DHT22;14190;51.342;6.338;2022-10-22T10:25:38;18.80;99.90
26517;DHT22;14190;51.342;6.338;2022-10-22T10:31:01;19.00;99.90
26517;DHT22;14190;51.342;6.338;2022-10-22T10:33:32;19.00;99.90
26517;DHT22;14190;51.342;6.338;2022-10-22T10:36:06;19.00;99.90
26517;DHT22;14190;51.342;6.338;2022-10-22T10:38:33;19.00;99.90
26517;DHT22;14190;51.342;6.338;2022-10-22T10:43:48;19.00;99.90
26517;DHT22;14190;51.342;6.338;2022-10-22T10:46:16;19.00;99.90
26517;DHT22;14190;51.342;6.338;2022-10-22T10:48:48;19.00;99.90
26517;DHT22;14190;51.342;6.338;2022-10-22T10:53:58;19.10;99.90
26517;DHT22;14190;51.342;6.338;2022-10-22T10:56:41;19.10;99.90
26517;DHT22;14190;51.342;6.338;2022-10-22T10:59:15;19.10;99.90
26517;DHT22;14190;51.342;6.338;2022-10-22T11:04:49;19.20;99.90
26517;DHT22;14190;51.342;6.338;2022-10-22T11:07:20;19.20;99.90
26517;DHT22;14190;51.342;6.338;2022-10-22T11:09:48;19.20;99.90
26517;DHT22;14190;51.342;6.338;2022-10-22T11:13:17;19.20;99.90
26517;DHT22;14190;51.342;6.338;2022-10-22T11:14:57;19.20;99.90
26517;DHT22;14190;51.342;6.338;2022-10-22T11:17:28;19.20;99.90
26517;DHT22;14190;51.342;6.338;2022-10-22T11:19:59;19.10;99.90
26517;DHT22;14190;51.342;6.338;2022-10-22T11:25:14;19.10;99.90
26517;DHT22;14190;51.342;6.338;2022-10-22T11:27:44;19.20;99.90
26517;DHT22;14190;51.342;6.338;2022-10-22T11:30:14;19.10;99.90
26517;DHT22;14190;51.342;6.338;2022-10-22T11:32:44;19.10;99.90
26517;DHT22;14190;51.342;6.338;2022-10-22T11:35:14;19.10;99.90
26517;DHT22;14190;51.342;6.338;2022-10-22T11:37:44;19.10;99.90
26517;DHT22;14190;51.342;6.338;2022-10-22T11:40:19;19.20;99.90
26517;DHT22;14190;51.342;6.338;2022-10-22T11:42:56;19.10;99.90
26517;DHT22;14190;51.342;6.338;2022-10-22T11:45:28;19.10;99.90
26517;DHT22;14190;51.342;6.338;2022-10-22T11:50:26;19.10;99.90
26517;DHT22;14190;51.342;6.338;2022-10-22T11:53:02;19.20;99.90
26517;DHT22;14190;51.342;6.338;2022-10-22T11:55:33;19.30;99.90
26517;DHT22;14190;51.342;6.338;2022-10-22T11:58:24;19.40;99.90
26517;DHT22;14190;51.342;6.338;2022-10-22T12:00:34;19.40;99.90
26517;DHT22;14190;51.342;6.338;2022-10-22T12:03:16;19.50;99.90
26517;DHT22;14190;51.342;6.338;2022-10-22T12:05:45;19.50;99.90
26517;DHT22;14190;51.342;6.338;2022-10-22T12:08:19;19.50;99.90
26517;DHT22;14190;51.342;6.338;2022-10-22T12:13:30;19.60;99.90
26517;DHT22;14190;51.342;6.338;2022-10-22T12:16:01;19.70;99.90
26517;DHT22;14190;51.342;6.338;2022-10-22T12:18:38;19.80;99.90
26517;DHT22;14190;51.342;6.338;2022-10-22T12:21:02;19.70;99.90
26517;DHT22;14190;51.342;6.338;2022-10-22T12:23:33;19.70;99.90
26517;DHT22;14190;51.342;6.338;2022-10-22T12:26:02;19.80;99.90
26517;DHT22;14190;51.342;6.338;2022-10-22T12:28:38;19.70;99.90
26517;DHT22;14190;51.342;6.338;2022-10-22T12:31:13;19.80;99.90
26517;DHT22;14190;51.342;6.338;2022-10-22T12:33:37;19.70;99.90
26517;DHT22;14190;51.342;6.338;2022-10-22T12:36:12;19.80;99.90
26517;DHT22;14190;51.342;6.338;2022-10-22T12:38:36;19.80;99.90
26517;DHT22;14190;51.342;6.338;2022-10-22T12:41:07;19.80;99.90
26517;DHT22;14190;51.342;6.338;2022-10-22T12:43:36;19.80;99.90
26517;DHT22;14190;51.342;6.338;2022-10-22T12:46:12;19.80;99.90
26517;DHT22;14190;51.342;6.338;2022-10-22T12:48:43;19.80;99.90
26517;DHT22;14190;51.342;6.338;2022-10-22T12:51:15;19.80;99.90
26517;DHT22;14190;51.342;6.338;2022-10-22T12:53:59;19.80;99.90
26517;DHT22;14190;51.342;6.338;2022-10-22T12:56:19;19.80;99.90
26517;DHT22;14190;51.342;6.338;2022-10-22T12:58:50;19.80;99.90
26517;DHT22;14190;51.342;6.338;2022-10-22T13:01:18;19.80;99.90
26517;DHT22;14190;51.342;6.338;2022-10-22T13:03:48;19.80;99.90
26517;DHT22;14190;51.342;6.338;2022-10-22T13:08:56;19.80;99.90
26517;DHT22;14190;51.342;6.338;2022-10-22T13:11:41;19.80;99.90
26517;DHT22;14190;51.342;6.338;2022-10-22T13:14:29;19.80;99.90
26517;DHT22;14190;51.342;6.338;2022-10-22T13:17:02;19.70;99.90
26517;DHT22;14190;51.342;6.338;2022-10-22T13:19:46;19.70;99.90
26517;DHT22;14190;51.342;6.338;2022-10-22T13:24:57;19.70;99.90
26517;DHT22;14190;51.342;6.338;2022-10-22T13:27:26;19.70;99.90
26517;DHT22;14190;51.342;6.338;2022-10-22T13:29:56;19.80;99.90
26517;DHT22;14190;51.342;6.338;2022-10-22T13:32:27;19.80;99.90
26517;DHT22;14190;51.342;6.338;2022-10-22T13:34:58;19.80;99.90
26517;DHT22;14190;51.342;6.338;2022-10-22T13:37:27;19.90;99.90
26517;DHT22;14190;51.342;6.338;2022-10-22T13:39:58;19.90;99.90
26517;DHT22;14190;51.342;6.338;2022-10-22T13:42:27;20.00;99.90
26517;DHT22;14190;51.342;6.338;2022-10-22T13:44:55;20.00;99.90
26517;DHT22;14190;51.342;6.338;2022-10-22T13:47:29;20.00;99.90
26517;DHT22;14190;51.342;6.338;2022-10-22T13:49:55;20.00;99.90
26517;DHT22;14190;51.342;6.338;2022-10-22T13:52:31;20.00;99.90
26517;DHT22;14190;51.342;6.338;2022-10-22T13:54:56;20.10;99.90
26517;DHT22;14190;51.342;6.338;2022-10-22T13:57:24;20.10;99.90
26517;DHT22;14190;51.342;6.338;2022-10-22T13:59:53;20.10;99.90
26517;DHT22;14190;51.342;6.338;2022-10-22T14:02:22;20.10;99.90
26517;DHT22;14190;51.342;6.338;2022-10-22T14:04:51;20.10;99.90
26517;DHT22;14190;51.342;6.338;2022-10-22T14:07:21;20.10;99.90
26517;DHT22;14190;51.342;6.338;2022-10-22T14:09:50;20.10;99.90
26517;DHT22;14190;51.342;6.338;2022-10-22T14:12:19;20.20;99.90
26517;DHT22;14190;51.342;6.338;2022-10-22T14:14:47;20.20;99.90
26517;DHT22;14190;51.342;6.338;2022-10-22T14:17:16;20.30;99.90
26517;DHT22;14190;51.342;6.338;2022-10-22T14:19:46;20.30;99.90
26517;DHT22;14190;51.342;6.338;2022-10-22T14:22:21;20.30;99.90
26517;DHT22;14190;51.342;6.338;2022-10-22T14:24:46;20.20;99.90
26517;DHT22;14190;51.342;6.338;2022-10-22T14:27:16;20.30;99.90
26517;DHT22;14190;51.342;6.338;2022-10-22T14:29:45;20.20;99.90
26517;DHT22;14190;51.342;6.338;2022-10-22T14:32:15;20.10;99.90
26517;DHT22;14190;51.342;6.338;2022-10-22T14:34:44;20.00;99.90
26517;DHT22;14190;51.342;6.338;2022-10-22T14:37:19;20.00;99.90
26517;DHT22;14190;51.342;6.338;2022-10-22T14:39:44;19.90;99.90
26517;DHT22;14190;51.342;6.338;2022-10-22T14:42:15;19.90;99.90
26517;DHT22;14190;51.342;6.338;2022-10-22T14:44:45;19.90;99.90
26517;DHT22;14190;51.342;6.338;2022-10-22T14:47:13;19.90;99.90
26517;DHT22;14190;51.342;6.338;2022-10-22T14:49:42;19.90;99.90
26517;DHT22;14190;51.342;6.338;2022-10-22T14:52:11;19.90;99.90
26517;DHT22;14190;51.342;6.338;2022-10-22T14:54:39;19.90;99.90
26517;DHT22;14190;51.342;6.338;2022-10-22T14:57:11;19.90;99.90
26517;DHT22;14190;51.342;6.338;2022-10-22T14:59:41;19.90;99.90
26517;DHT22;14190;51.342;6.338;2022-10-22T15:02:13;20.00;99.90
26517;DHT22;14190;51.342;6.338;2022-10-22T15:04:42;20.00;99.90
26517;DHT22;14190;51.342;6.338;2022-10-22T15:07:10;20.00;99.90
26517;DHT22;14190;51.342;6.338;2022-10-22T15:09:39;20.00;99.90
26517;DHT22;14190;51.342;6.338;2022-10-22T15:12:08;20.00;99.90
26517;DHT22;14190;51.342;6.338;2022-10-22T15:14:37;20.00;99.90
26517;DHT22;14190;51.342;6.338;2022-10-22T15:17:05;20.00;99.90
26517;DHT22;14190;51.342;6.338;2022-10-22T15:19:34;20.00;99.90
26517;DHT22;14190;51.342;6.338;2022-10-22T15:22:03;19.90;99.90
26517;DHT22;14190;51.342;6.338;2022-10-22T15:24:33;19.90;99.90
26517;DHT22;14190;51.342;6.338;2022-10-22T15:27:02;19.90;99.90
26517;DHT22;14190;51.342;6.338;2022-10-22T15:29:31;19.90;99.90
26517;DHT22;14190;51.342;6.338;2022-10-22T15:32:00;19.90;99.90
26517;DHT22;14190;51.342;6.338;2022-10-22T15:34:30;19.90;99.90
26517;DHT22;14190;51.342;6.338;2022-10-22T15:37:01;19.90;99.90
26517;DHT22;14190;51.342;6.338;2022-10-22T15:39:33;19.80;99.90
26517;DHT22;14190;51.342;6.338;2022-10-22T15:42:02;19.80;99.90
26517;DHT22;14190;51.342;6.338;2022-10-22T15:44:31;19.70;99.90
26517;DHT22;14190;51.342;6.338;2022-10-22T15:47:01;19.70;99.90
26517;DHT22;14190;51.342;6.338;2022-10-22T15:49:30;19.70;99.90
26517;DHT22;14190;51.342;6.338;2022-10-22T15:51:59;19.60;99.90
26517;DHT22;14190;51.342;6.338;2022-10-22T15:54:28;19.60;99.90
26517;DHT22;14190;51.342;6.338;2022-10-22T15:56:57;19.60;99.90
26517;DHT22;14190;51.342;6.338;2022-10-22T15:59:26;19.50;99.90
26517;DHT22;14190;51.342;6.338;2022-10-22T16:01:55;19.50;99.90
26517;DHT22;14190;51.342;6.338;2022-10-22T16:04:24;19.40;99.90
26517;DHT22;14190;51.342;6.338;2022-10-22T16:06:53;19.40;99.90
26517;DHT22;14190;51.342;6.338;2022-10-22T16:09:22;19.30;99.90
26517;DHT22;14190;51.342;6.338;2022-10-22T16:11:52;19.30;99.90
26517;DHT22;14190;51.342;6.338;2022-10-22T16:14:21;19.30;99.90
26517;DHT22;14190;51.342;6.338;2022-10-22T16:16:51;19.20;99.90
26517;DHT22;14190;51.342;6.338;2022-10-22T16:19:21;19.20;99.90
26517;DHT22;14190;51.342;6.338;2022-10-22T16:21:51;19.10;99.90
26517;DHT22;14190;51.342;6.338;2022-10-22T16:24:21;19.10;99.90
26517;DHT22;14190;51.342;6.338;2022-10-22T16:26:50;19.00;99.90
26517;DHT22;14190;51.342;6.338;2022-10-22T16:29:19;19.00;99.90
26517;DHT22;14190;51.342;6.338;2022-10-22T16:31:51;18.90;99.90
26517;DHT22;14190;51.342;6.338;2022-10-22T16:34:20;18.80;99.90
26517;DHT22;14190;51.342;6.338;2022-10-22T16:36:49;18.70;99.90
26517;DHT22;14190;51.342;6.338;2022-10-22T16:39:20;18.70;99.90
26517;DHT22;14190;51.342;6.338;2022-10-22T16:41:49;18.70;99.90
26517;DHT22;14190;51.342;6.338;2022-10-22T16:44:18;18.60;99.90
26517;DHT22;14190;51.342;6.338;2022-10-22T16:46:47;18.60;99.90